createdAt,value
2023-03-19T00:02:23.198Z,93897.00
2023-03-19T00:06:28.247Z,93887.00
2023-03-19T00:10:31.838Z,93886.00
2023-03-19T00:14:54.739Z,93902.00
2023-03-19T00:18:58.490Z,93883.00
2023-03-19T00:23:03.636Z,93895.00
2023-03-19T00:27:09.545Z,93873.00
2023-03-19T00:31:15.409Z,93878.00
2023-03-19T00:35:19.384Z,93888.00
2023-03-19T00:39:25.684Z,93896.00
2023-03-19T00:43:29.461Z,93884.00
2023-03-19T00:47:33.014Z,93878.00
2023-03-19T00:51:36.609Z,93883.00
2023-03-19T00:55:50.102Z,93888.00
2023-03-19T00:59:53.726Z,93890.00
2023-03-19T01:03:57.300Z,93885.00
2023-03-19T01:08:03.901Z,93858.00
2023-03-19T01:12:09.907Z,93864.00
2023-03-19T01:16:13.898Z,93840.00
2023-03-19T01:20:19.215Z,93866.00
2023-03-19T01:24:22.815Z,93870.00
2023-03-19T01:28:31.461Z,93870.00
2023-03-19T01:32:35.644Z,93857.00
2023-03-19T01:37:02.469Z,93860.00
2023-03-19T01:41:09.811Z,93865.00
2023-03-19T01:45:38.673Z,93863.00
2023-03-19T01:50:01.412Z,93869.00
2023-03-19T01:54:08.760Z,93876.00
2023-03-19T01:58:31.374Z,93875.00
2023-03-19T02:02:50.251Z,93884.00
2023-03-19T02:07:17.057Z,93873.00
2023-03-19T02:11:22.033Z,93844.00
2023-03-19T02:15:25.961Z,93878.00
2023-03-19T02:19:39.961Z,93859.00
2023-03-19T02:23:51.441Z,93858.00
2023-03-19T02:28:02.966Z,93836.00
2023-03-19T02:32:07.287Z,93846.00
2023-03-19T02:36:17.678Z,93874.00
2023-03-19T02:40:25.226Z,93841.00
2023-03-19T02:44:31.444Z,93862.00
2023-03-19T02:48:35.590Z,93876.00
2023-03-19T02:52:39.357Z,93886.00
2023-03-19T02:56:43.166Z,93886.00
2023-03-19T03:05:04.947Z,93873.00
2023-03-19T03:09:08.408Z,93871.00
2023-03-19T03:13:11.944Z,93874.00
2023-03-19T03:17:15.562Z,93882.00
2023-03-19T03:21:21.929Z,93886.00
2023-03-19T03:25:27.257Z,93899.00
2023-03-19T03:29:34.153Z,93874.00
2023-03-19T03:33:38.311Z,93878.00
2023-03-19T03:37:45.348Z,93897.00
2023-03-19T03:41:49.148Z,93874.00
2023-03-19T03:45:54.033Z,93874.00
2023-03-19T03:50:01.152Z,93885.00
2023-03-19T03:54:09.087Z,93886.00
2023-03-19T03:58:13.222Z,93872.00
2023-03-19T04:02:21.333Z,93885.00
2023-03-19T04:06:36.148Z,93886.00
2023-03-19T04:10:59.918Z,93871.00
2023-03-19T04:15:05.375Z,93902.00
2023-03-19T04:19:16.742Z,93895.00
2023-03-19T04:23:23.437Z,93869.00
2023-03-19T04:27:31.825Z,93888.00
2023-03-19T04:31:37.422Z,93890.00
2023-03-19T04:35:41.325Z,93874.00
2023-03-19T04:39:51.746Z,93869.00
2023-03-19T04:44:02.483Z,93872.00
2023-03-19T04:48:07.853Z,93897.00
2023-03-19T04:52:13.785Z,93887.00
2023-03-19T04:56:18.183Z,93882.00
2023-03-19T05:00:25.047Z,93884.00
2023-03-19T05:04:30.051Z,93879.00
2023-03-19T05:08:39.847Z,93864.00
2023-03-19T05:12:43.490Z,93864.00
2023-03-19T05:16:52.254Z,93888.00
2023-03-19T05:20:56.431Z,93890.00
2023-03-19T05:25:02.926Z,93877.00
2023-03-19T05:29:10.980Z,93881.00
2023-03-19T05:33:42.508Z,93892.00
2023-03-19T05:37:46.872Z,93876.00
2023-03-19T05:41:52.139Z,93896.00
2023-03-19T05:46:01.199Z,93879.00
2023-03-19T05:50:14.457Z,93890.00
2023-03-19T05:54:29.262Z,93905.00
2023-03-19T05:58:59.007Z,93900.00
2023-03-19T06:03:09.142Z,93883.00
2023-03-19T06:07:29.339Z,93904.00
2023-03-19T06:11:35.595Z,93904.00
2023-03-19T06:15:57.789Z,93883.00
2023-03-19T06:20:14.999Z,93889.00
2023-03-19T06:24:21.807Z,93904.00
2023-03-19T06:28:28.079Z,93883.00
2023-03-19T06:32:33.315Z,93937.00
2023-03-19T06:36:44.351Z,93919.00
2023-03-19T06:40:54.003Z,93945.00
2023-03-19T06:44:58.439Z,93949.00
2023-03-19T06:49:03.249Z,93960.00
2023-03-19T06:53:07.937Z,93967.00
2023-03-19T06:57:17.257Z,93969.00
2023-03-19T07:01:22.396Z,93959.00
2023-03-19T07:05:27.703Z,93964.00
2023-03-19T07:09:35.266Z,93958.00
2023-03-19T07:13:44.464Z,93964.00
2023-03-19T07:17:48.872Z,93955.00
2023-03-19T07:21:56.117Z,93981.00
2023-03-19T07:26:01.631Z,93971.00
2023-03-19T07:30:14.773Z,93960.00
2023-03-19T07:34:24.534Z,93981.00
2023-03-19T07:38:31.681Z,93983.00
2023-03-19T07:42:45.100Z,93983.00
2023-03-19T07:46:54.272Z,93996.00
2023-03-19T07:51:05.203Z,94001.00
2023-03-19T07:55:12.100Z,94017.00
2023-03-19T07:59:19.582Z,93998.00
2023-03-19T08:03:27.655Z,94006.00
2023-03-19T08:07:31.968Z,94017.00
2023-03-19T08:11:38.281Z,94020.00
2023-03-19T08:15:42.862Z,93999.00
2023-03-19T08:19:50.112Z,93982.00
2023-03-19T08:23:56.568Z,93972.00
2023-03-19T08:28:01.276Z,93977.00
2023-03-19T08:32:06.660Z,93996.00
2023-03-19T08:36:17.565Z,93982.00
2023-03-19T08:40:30.229Z,93988.00
2023-03-19T08:44:34.405Z,93989.00
2023-03-19T08:48:41.322Z,94011.00
2023-03-19T08:52:47.897Z,94010.00
2023-03-19T08:56:53.294Z,94030.00
2023-03-19T09:01:04.717Z,94025.00
2023-03-19T09:05:09.099Z,94003.00
2023-03-19T09:09:18.569Z,94006.00
2023-03-19T09:13:22.738Z,94030.00
2023-03-19T09:17:28.671Z,94023.00
2023-03-19T09:21:32.513Z,94043.00
2023-03-19T09:25:38.634Z,94019.00
2023-03-19T09:29:45.536Z,94011.00
2023-03-19T09:33:55.621Z,94036.00
2023-03-19T09:37:59.650Z,94016.00
2023-03-19T09:42:24.194Z,94033.00
2023-03-19T09:46:38.215Z,94028.00
2023-03-19T09:50:41.987Z,94044.00
2023-03-19T09:54:48.626Z,94008.00
2023-03-19T09:58:55.070Z,94017.00
2023-03-19T10:03:14.286Z,94035.00
2023-03-19T10:07:37.963Z,94018.00
2023-03-19T10:11:57.728Z,94007.00
2023-03-19T10:16:04.360Z,94009.00
2023-03-19T10:20:11.489Z,94031.00
2023-03-19T10:24:19.407Z,94018.00
2023-03-19T10:28:25.157Z,94005.00
2023-03-19T10:32:38.935Z,94032.00
2023-03-19T10:36:42.986Z,94027.00
2023-03-19T10:40:58.235Z,94016.00
2023-03-19T10:45:06.398Z,94020.00
2023-03-19T10:49:16.045Z,94017.00
2023-03-19T10:53:32.044Z,94031.00
2023-03-19T10:57:36.626Z,94032.00
2023-03-19T11:01:43.018Z,94038.00
2023-03-19T11:05:50.633Z,94031.00
2023-03-19T11:09:59.464Z,94022.00
2023-03-19T11:14:10.898Z,94012.00
2023-03-19T11:18:20.809Z,94028.00
2023-03-19T11:22:28.738Z,94036.00
2023-03-19T11:26:32.728Z,94034.00
2023-03-19T11:30:45.343Z,94019.00
2023-03-19T11:34:59.332Z,94022.00
2023-03-19T11:39:17.316Z,94009.00
2023-03-19T11:43:39.184Z,94006.00
2023-03-19T11:47:52.497Z,94009.00
2023-03-19T11:52:04.069Z,94003.00
2023-03-19T11:56:21.123Z,94004.00
2023-03-19T12:00:32.738Z,93997.00
2023-03-19T12:04:56.061Z,93990.00
2023-03-19T12:09:04.349Z,93990.00
2023-03-19T12:13:24.784Z,93979.00
2023-03-19T12:17:44.022Z,93990.00
2023-03-19T12:21:58.776Z,93996.00
2023-03-19T12:26:08.985Z,93994.00
2023-03-19T12:30:24.361Z,93985.00
2023-03-19T12:34:32.770Z,93981.00
2023-03-19T12:38:41.045Z,93987.00
2023-03-19T12:42:44.564Z,93968.00
2023-03-19T12:46:59.620Z,93969.00
2023-03-19T12:51:10.968Z,93983.00
2023-03-19T12:55:21.195Z,93971.00
2023-03-19T12:59:32.582Z,93983.00
2023-03-19T13:03:45.025Z,93986.00
2023-03-19T13:07:54.234Z,93985.00
2023-03-19T13:12:04.613Z,93990.00
2023-03-19T13:16:16.957Z,93978.00
2023-03-19T13:20:33.930Z,93989.00
2023-03-19T13:24:39.792Z,93981.00
2023-03-19T13:29:00.444Z,93975.00
2023-03-19T13:33:05.871Z,93980.00
2023-03-19T13:37:16.459Z,93988.00
2023-03-19T13:41:50.710Z,93988.00
2023-03-19T13:45:56.568Z,93992.00
2023-03-19T13:50:16.418Z,93987.00
2023-03-19T13:54:24.208Z,93980.00
2023-03-19T13:58:46.152Z,93978.00
2023-03-19T14:02:55.427Z,93971.00
2023-03-19T14:07:10.790Z,93978.00
2023-03-19T14:11:25.125Z,93975.00
2023-03-19T14:15:31.082Z,93969.00
2023-03-19T14:19:42.499Z,93960.00
2023-03-19T14:23:55.277Z,93963.00
2023-03-19T14:28:03.762Z,93952.00
2023-03-19T14:32:11.446Z,93966.00
2023-03-19T14:36:19.017Z,93962.00
2023-03-19T14:40:25.440Z,93963.00
2023-03-19T14:44:58.637Z,93965.00
2023-03-19T14:49:46.198Z,93974.00
2023-03-19T14:53:55.291Z,93972.00
2023-03-19T14:57:58.849Z,93969.00
2023-03-19T15:02:03.893Z,93975.00
2023-03-19T15:06:14.546Z,93973.00
2023-03-19T15:10:20.392Z,93978.00
2023-03-19T15:14:45.290Z,93975.00
2023-03-19T15:18:48.752Z,93974.00
2023-03-19T15:22:58.914Z,93989.00
2023-03-19T15:27:02.541Z,93981.00
2023-03-19T15:31:29.249Z,93982.00
2023-03-19T15:35:35.191Z,93991.00
2023-03-19T15:39:47.334Z,93986.00
2023-03-19T15:43:51.690Z,93991.00
2023-03-19T15:47:59.088Z,93987.00
2023-03-19T15:52:07.153Z,93994.00
2023-03-19T15:56:15.948Z,94002.00
2023-03-19T16:00:20.464Z,94008.00
2023-03-19T16:04:27.566Z,94007.00
2023-03-19T16:08:32.943Z,94005.00
2023-03-19T16:12:41.343Z,94017.00
2023-03-19T16:16:48.204Z,94014.00
2023-03-19T16:21:05.921Z,94027.00
2023-03-19T16:25:19.115Z,94037.00
2023-03-19T16:29:26.572Z,94028.00
2023-03-19T16:33:30.424Z,94019.00
2023-03-19T16:37:39.884Z,94048.00
2023-03-19T16:41:43.690Z,94045.00
2023-03-19T16:45:52.799Z,94046.00
2023-03-19T16:49:56.282Z,94031.00
2023-03-19T16:54:00.955Z,94039.00
2023-03-19T16:58:07.970Z,94038.00
2023-03-19T17:02:15.769Z,94038.00
2023-03-19T17:06:21.084Z,94053.00
2023-03-19T17:10:28.288Z,94068.00
2023-03-19T17:14:32.954Z,94064.00
2023-03-19T17:18:43.520Z,94060.00
2023-03-19T17:22:47.004Z,94063.00
2023-03-19T17:26:50.745Z,94064.00
2023-03-19T17:30:54.765Z,94064.00
2023-03-19T17:35:00.186Z,94064.00
2023-03-19T17:39:04.468Z,94062.00
2023-03-19T17:43:11.885Z,94064.00
2023-03-19T17:47:18.221Z,94053.00
2023-03-19T17:51:25.482Z,94056.00
2023-03-19T17:55:31.329Z,94051.00
2023-03-19T17:59:34.902Z,94057.00
2023-03-19T18:03:38.923Z,94060.00
2023-03-19T18:07:44.852Z,94068.00
2023-03-19T18:11:48.469Z,94076.00
2023-03-19T18:15:52.174Z,94078.00
2023-03-19T18:19:55.881Z,94082.00
2023-03-19T18:24:01.509Z,94085.00
2023-03-19T18:28:06.158Z,94075.00
2023-03-19T18:32:16.597Z,94095.00
2023-03-19T18:36:24.500Z,94084.00
2023-03-19T18:40:32.912Z,94083.00
2023-03-19T18:44:36.633Z,94074.00
2023-03-19T18:48:40.444Z,94086.00
2023-03-19T18:52:44.303Z,94072.00
2023-03-19T18:56:50.738Z,94070.00
2023-03-19T19:00:56.487Z,94094.00
2023-03-19T19:04:59.917Z,94089.00
2023-03-19T19:09:03.657Z,94089.00
2023-03-19T19:13:16.824Z,94089.00
2023-03-19T19:17:24.734Z,94101.00
2023-03-19T19:21:28.050Z,94095.00
2023-03-19T19:25:31.985Z,94089.00
2023-03-19T19:29:37.480Z,94088.00
2023-03-19T19:33:41.176Z,94094.00
2023-03-19T19:37:44.884Z,94073.00
2023-03-19T19:41:49.144Z,94081.00
2023-03-19T19:45:57.465Z,94097.00
2023-03-19T19:50:00.939Z,94089.00
2023-03-19T19:54:04.549Z,94091.00
2023-03-19T19:58:10.341Z,94096.00
2023-03-19T20:02:23.302Z,94088.00
2023-03-19T20:06:27.061Z,94100.00
2023-03-19T20:10:32.200Z,94104.00
2023-03-19T20:14:35.780Z,94100.00
2023-03-19T20:18:45.078Z,94113.00
2023-03-19T20:22:50.122Z,94103.00
2023-03-19T20:26:53.855Z,94093.00
2023-03-19T20:30:57.427Z,94100.00
2023-03-19T20:35:02.857Z,94120.00
2023-03-19T20:39:08.146Z,94127.00
2023-03-19T20:43:22.858Z,94121.00
2023-03-19T20:47:27.259Z,94120.00
2023-03-19T20:51:33.909Z,94109.00
2023-03-19T20:55:39.552Z,94127.00
2023-03-19T20:59:45.046Z,94115.00
2023-03-19T21:03:48.718Z,94116.00
2023-03-19T21:07:56.032Z,94114.00
2023-03-19T21:12:01.142Z,94126.00
2023-03-19T21:16:04.630Z,94125.00
2023-03-19T21:20:09.715Z,94126.00
2023-03-19T21:24:18.285Z,94128.00
2023-03-19T21:28:25.989Z,94118.00
2023-03-19T21:32:29.857Z,94124.00
2023-03-19T21:36:33.697Z,94115.00
2023-03-19T21:40:39.029Z,94128.00
2023-03-19T21:44:42.608Z,94104.00
2023-03-19T21:48:46.504Z,94110.00
2023-03-19T21:53:00.559Z,94124.00
2023-03-19T21:57:07.687Z,94135.00
2023-03-19T22:01:18.574Z,94120.00
2023-03-19T22:05:26.808Z,94129.00
2023-03-19T22:09:31.046Z,94122.00
2023-03-19T22:13:36.275Z,94125.00
2023-03-19T22:17:41.047Z,94118.00
2023-03-19T22:21:44.661Z,94106.00
2023-03-19T22:25:50.923Z,94121.00
2023-03-19T22:29:56.898Z,94109.00
2023-03-19T22:34:00.507Z,94121.00
2023-03-19T22:38:04.400Z,94101.00
2023-03-19T22:42:10.370Z,94120.00
2023-03-19T22:46:19.994Z,94111.00
2023-03-19T22:50:26.148Z,94116.00
2023-03-19T22:54:29.877Z,94111.00
2023-03-19T22:58:33.414Z,94116.00
2023-03-19T23:02:38.840Z,94128.00
2023-03-19T23:06:42.451Z,94120.00
2023-03-19T23:10:47.598Z,94122.00
2023-03-19T23:14:51.627Z,94134.00
2023-03-19T23:18:57.168Z,94131.00
2023-03-19T23:23:01.049Z,94127.00
2023-03-19T23:27:05.060Z,94122.00
2023-03-19T23:31:12.496Z,94135.00
2023-03-19T23:35:21.721Z,94112.00
2023-03-19T23:39:25.964Z,94131.00
2023-03-19T23:43:31.186Z,94122.00
2023-03-19T23:47:35.810Z,94137.00
2023-03-19T23:51:42.178Z,94126.00
2023-03-19T23:55:46.345Z,94130.00
2023-03-19T23:59:53.381Z,94142.00
